createdAt,value
2022-07-26T00:03:00.771Z,45.36
2022-07-26T00:06:03.225Z,44.86
2022-07-26T00:09:05.787Z,45.06
2022-07-26T00:12:08.851Z,44.86
2022-07-26T00:15:11.605Z,45.29
2022-07-26T00:18:14.871Z,45.79
2022-07-26T00:21:17.135Z,45.95
2022-07-26T00:24:19.539Z,46.27
2022-07-26T00:27:22.392Z,46.44
2022-07-26T00:30:24.960Z,46.79
2022-07-26T00:33:27.102Z,46.84
2022-07-26T00:36:29.799Z,48.13
2022-07-26T00:39:31.928Z,47.97
2022-07-26T00:42:34.483Z,48.62
2022-07-26T00:45:36.671Z,48.54
2022-07-26T00:48:39.196Z,48.79
2022-07-26T00:51:42.060Z,48.09
2022-07-26T00:54:49.244Z,48.44
2022-07-26T00:57:51.744Z,48.66
2022-07-26T01:00:54.172Z,48.20
2022-07-26T01:03:56.383Z,48.46
2022-07-26T01:06:59.362Z,48.41
2022-07-26T01:10:03.644Z,48.65
2022-07-26T01:13:06.269Z,48.25
2022-07-26T01:16:08.487Z,48.43
2022-07-26T01:19:10.986Z,47.60
2022-07-26T01:22:14.728Z,47.30
2022-07-26T01:25:17.436Z,47.09
2022-07-26T01:28:20.349Z,46.77
2022-07-26T01:31:22.837Z,47.16
2022-07-26T01:34:24.957Z,47.55
2022-07-26T01:37:27.512Z,47.85
2022-07-26T01:40:29.640Z,48.56
2022-07-26T01:43:32.106Z,47.66
2022-07-26T01:46:35.220Z,48.92
2022-07-26T01:49:37.491Z,49.46
2022-07-26T01:52:39.547Z,49.58
2022-07-26T01:55:41.967Z,49.24
2022-07-26T01:58:44.280Z,49.91
2022-07-26T02:01:46.893Z,49.40
2022-07-26T02:04:58.729Z,48.22
2022-07-26T02:08:01.171Z,47.72
2022-07-26T02:11:04.485Z,47.82
2022-07-26T02:14:06.907Z,49.28
2022-07-26T02:17:10.337Z,48.57
2022-07-26T02:20:12.902Z,48.47
2022-07-26T02:23:15.301Z,49.85
2022-07-26T02:26:17.424Z,50.28
2022-07-26T02:29:19.836Z,50.01
2022-07-26T02:32:21.972Z,50.63
2022-07-26T02:35:24.391Z,50.90
2022-07-26T02:38:26.532Z,51.22
2022-07-26T02:41:28.935Z,50.55
2022-07-26T02:44:31.056Z,50.70
2022-07-26T02:47:33.860Z,50.56
2022-07-26T02:50:36.084Z,50.54
2022-07-26T02:53:38.506Z,50.47
2022-07-26T02:56:40.652Z,50.89
2022-07-26T02:59:43.050Z,50.95
2022-07-26T03:02:45.447Z,51.43
2022-07-26T03:05:47.895Z,52.21
2022-07-26T03:08:50.730Z,52.77
2022-07-26T03:11:53.235Z,52.30
2022-07-26T03:14:55.506Z,52.13
2022-07-26T03:17:58.035Z,51.87
2022-07-26T03:21:00.189Z,51.95
2022-07-26T03:24:02.570Z,51.50
2022-07-26T03:27:04.749Z,51.79
2022-07-26T03:30:08.117Z,52.75
2022-07-26T03:33:10.297Z,51.89
2022-07-26T03:36:15.570Z,52.24
2022-07-26T03:39:18.108Z,52.67
2022-07-26T03:42:20.494Z,53.00
2022-07-26T03:45:22.647Z,52.31
2022-07-26T03:48:25.051Z,52.75
2022-07-26T03:51:27.235Z,52.11
2022-07-26T03:54:29.707Z,51.54
2022-07-26T03:57:31.826Z,50.81
2022-07-26T04:00:34.416Z,50.76
2022-07-26T04:03:36.814Z,50.64
2022-07-26T04:06:41.042Z,50.69
2022-07-26T04:09:43.560Z,51.68
2022-07-26T04:12:45.693Z,51.49
2022-07-26T04:15:48.132Z,50.62
2022-07-26T04:18:50.296Z,50.38
2022-07-26T04:21:52.690Z,50.86
2022-07-26T04:24:55.866Z,50.34
2022-07-26T04:27:58.677Z,49.29
2022-07-26T04:31:01.588Z,49.16
2022-07-26T04:34:05.379Z,50.65
2022-07-26T04:37:07.822Z,48.03
2022-07-26T04:40:15.404Z,46.98
2022-07-26T04:43:19.323Z,45.06
2022-07-26T04:46:21.887Z,44.34
2022-07-26T04:49:24.043Z,45.46
2022-07-26T04:52:26.455Z,44.84
2022-07-26T04:55:28.772Z,42.87
2022-07-26T04:58:31.246Z,45.29
2022-07-26T05:01:33.399Z,43.61
2022-07-26T05:04:36.207Z,45.32
2022-07-26T05:07:41.845Z,43.04
2022-07-26T05:10:45.177Z,45.00
2022-07-26T05:13:47.424Z,40.25
2022-07-26T05:16:50.033Z,39.69
2022-07-26T05:19:54.497Z,39.22
2022-07-26T05:22:57.896Z,39.40
2022-07-26T05:26:00.014Z,38.95
2022-07-26T05:29:02.649Z,38.85
2022-07-26T05:32:05.147Z,38.55
2022-07-26T05:35:08.379Z,37.55
2022-07-26T05:38:10.673Z,36.29
2022-07-26T05:41:13.137Z,38.42
2022-07-26T05:44:16.070Z,35.87
2022-07-26T05:47:21.179Z,35.07
2022-07-26T05:50:23.323Z,28.52
2022-07-26T05:53:25.741Z,24.10
2022-07-26T05:56:29.415Z,21.77
2022-07-26T05:59:33.266Z,20.43
2022-07-26T06:02:35.599Z,18.90
2022-07-26T06:05:38.051Z,19.84
2022-07-26T06:08:40.270Z,20.74
2022-07-26T06:11:42.908Z,19.76
2022-07-26T06:14:45.444Z,17.98
2022-07-26T06:17:47.974Z,18.00
2022-07-26T06:20:50.760Z,18.34
2022-07-26T06:23:53.241Z,17.95
2022-07-26T06:27:04.733Z,17.78
2022-07-26T06:30:08.753Z,20.95
2022-07-26T06:33:11.752Z,20.55
2022-07-26T06:36:14.323Z,19.14
2022-07-26T06:39:16.441Z,22.13
2022-07-26T06:42:19.005Z,23.11
2022-07-26T06:45:21.499Z,21.73
2022-07-26T06:48:23.869Z,22.35
2022-07-26T06:51:26.026Z,27.83
2022-07-26T06:54:28.554Z,28.55
2022-07-26T06:57:30.733Z,26.73
2022-07-26T07:00:33.278Z,23.66
2022-07-26T07:03:35.437Z,26.25
2022-07-26T07:06:37.839Z,28.26
2022-07-26T07:09:40.422Z,29.10
2022-07-26T07:12:44.786Z,26.86
2022-07-26T07:15:46.925Z,24.28
2022-07-26T07:18:51.279Z,21.41
2022-07-26T07:21:53.492Z,19.83
2022-07-26T07:24:55.767Z,20.24
2022-07-26T07:27:58.457Z,19.35
2022-07-26T07:31:00.895Z,19.50
2022-07-26T07:34:03.852Z,21.35
2022-07-26T07:37:07.759Z,24.36
2022-07-26T07:40:10.627Z,27.90
2022-07-26T07:43:13.218Z,31.43
2022-07-26T07:46:15.449Z,32.64
2022-07-26T07:49:17.960Z,34.38
2022-07-26T07:52:20.372Z,34.11
2022-07-26T07:55:40.302Z,32.39
2022-07-26T07:58:43.793Z,33.86
2022-07-26T08:01:47.367Z,33.44
2022-07-26T08:04:49.819Z,32.68
2022-07-26T08:07:52.451Z,33.38
2022-07-26T08:10:55.012Z,33.58
2022-07-26T08:13:58.883Z,34.28
2022-07-26T08:17:01.846Z,33.95
2022-07-26T08:20:07.978Z,35.12
2022-07-26T08:23:13.938Z,35.45
2022-07-26T08:26:16.069Z,35.11
2022-07-26T08:29:18.497Z,36.14
2022-07-26T08:32:20.667Z,35.90
2022-07-26T08:35:23.054Z,38.19
2022-07-26T08:38:25.299Z,39.33
2022-07-26T08:41:28.458Z,38.77
2022-07-26T08:44:31.018Z,39.52
2022-07-26T08:47:38.085Z,39.77
2022-07-26T08:50:45.265Z,40.89
2022-07-26T08:53:47.874Z,40.76
2022-07-26T08:56:52.299Z,40.65
2022-07-26T09:00:22.000Z,40.02
2022-07-26T09:03:25.997Z,41.94
2022-07-26T09:06:28.531Z,42.78
2022-07-26T09:09:32.954Z,42.77
2022-07-26T09:12:36.439Z,42.76
2022-07-26T09:15:38.734Z,41.09
2022-07-26T09:18:41.154Z,42.49
2022-07-26T09:21:43.660Z,41.91
2022-07-26T09:24:47.913Z,40.37
2022-07-26T09:27:50.921Z,40.24
2022-07-26T09:30:59.785Z,39.65
2022-07-26T09:34:02.630Z,39.61
2022-07-26T09:37:08.600Z,39.80
2022-07-26T09:40:15.656Z,40.02
2022-07-26T09:43:24.130Z,41.42
2022-07-26T09:46:30.965Z,41.90
2022-07-26T09:49:40.699Z,43.94
2022-07-26T09:53:03.728Z,45.95
2022-07-26T09:56:06.415Z,46.98
2022-07-26T09:59:09.267Z,48.84
2022-07-26T10:02:13.952Z,51.21
2022-07-26T10:05:16.262Z,55.28
2022-07-26T10:08:18.838Z,58.96
2022-07-26T10:11:22.110Z,63.20
2022-07-26T10:14:33.481Z,65.50
2022-07-26T10:17:41.726Z,68.12
2022-07-26T10:20:45.502Z,80.77
2022-07-26T10:23:53.515Z,89.92
2022-07-26T10:26:55.914Z,93.48
2022-07-26T10:30:35.345Z,96.23
2022-07-26T10:33:44.024Z,96.24
2022-07-26T10:36:58.722Z,94.00
2022-07-26T10:40:19.223Z,92.50
2022-07-26T10:47:04.280Z,90.06
2022-07-26T10:50:07.939Z,90.34
2022-07-26T10:53:11.516Z,90.95
2022-07-26T10:56:13.820Z,90.24
2022-07-26T10:59:54.365Z,89.14
2022-07-26T11:02:58.635Z,92.17
2022-07-26T11:06:18.320Z,89.25
2022-07-26T11:09:21.286Z,87.35
2022-07-26T11:12:24.144Z,82.70
2022-07-26T11:15:26.723Z,82.07
2022-07-26T11:18:32.734Z,80.38
2022-07-26T11:21:35.219Z,79.78
2022-07-26T11:24:41.078Z,80.34
2022-07-26T11:28:08.285Z,81.10
2022-07-26T11:31:10.588Z,80.73
2022-07-26T11:34:22.391Z,82.04
2022-07-26T11:37:24.625Z,80.41
2022-07-26T11:40:47.106Z,80.10
2022-07-26T11:43:50.336Z,78.82
2022-07-26T11:46:53.375Z,76.64
2022-07-26T11:53:22.491Z,76.40
2022-07-26T11:56:24.978Z,76.37
2022-07-26T11:59:29.846Z,74.84
2022-07-26T12:02:32.119Z,72.46
2022-07-26T12:05:34.710Z,73.31
2022-07-26T12:08:47.010Z,72.92
2022-07-26T12:11:52.886Z,74.51
2022-07-26T12:15:03.976Z,73.40
2022-07-26T12:18:08.040Z,72.27
2022-07-26T12:21:11.198Z,70.57
2022-07-26T12:24:35.997Z,70.49
2022-07-26T12:27:45.940Z,69.29
2022-07-26T12:30:48.509Z,67.44
2022-07-26T12:33:50.716Z,65.48
2022-07-26T12:36:53.246Z,62.26
2022-07-26T12:40:12.240Z,61.76
2022-07-26T12:43:14.624Z,61.54
2022-07-26T12:46:16.756Z,60.87
2022-07-26T12:49:19.324Z,64.43
2022-07-26T12:52:23.221Z,63.29
2022-07-26T12:55:26.266Z,64.66
2022-07-26T12:58:28.369Z,66.81
2022-07-26T13:01:31.971Z,65.78
2022-07-26T13:04:34.568Z,67.44
2022-07-26T13:07:37.016Z,69.00
2022-07-26T13:10:41.718Z,70.18
2022-07-26T13:13:45.058Z,70.90
2022-07-26T13:16:47.310Z,70.25
2022-07-26T13:19:49.782Z,70.66
2022-07-26T13:22:51.909Z,70.41
2022-07-26T13:25:55.986Z,66.79
2022-07-26T13:28:58.555Z,64.22
2022-07-26T13:32:01.127Z,59.72
2022-07-26T13:35:03.416Z,60.02
2022-07-26T13:38:05.947Z,60.17
2022-07-26T13:45:00.556Z,63.33
2022-07-26T13:48:03.224Z,63.47
2022-07-26T13:51:05.719Z,64.19
2022-07-26T13:54:08.434Z,64.11
2022-07-26T13:57:10.806Z,61.00
2022-07-26T14:00:13.719Z,59.00
2022-07-26T14:03:16.281Z,58.48
2022-07-26T14:06:19.279Z,58.67
2022-07-26T14:09:21.879Z,60.44
2022-07-26T14:12:23.940Z,60.90
2022-07-26T14:15:26.348Z,60.69
2022-07-26T14:18:28.438Z,60.47
2022-07-26T14:21:38.603Z,59.70
2022-07-26T14:24:53.826Z,59.11
2022-07-26T14:27:56.259Z,58.36
2022-07-26T14:30:58.405Z,57.99
2022-07-26T14:34:00.813Z,59.56
2022-07-26T14:37:08.476Z,60.48
2022-07-26T14:40:25.517Z,60.54
2022-07-26T14:43:27.995Z,60.44
2022-07-26T14:46:30.745Z,59.53
2022-07-26T14:49:32.981Z,60.15
2022-07-26T14:52:43.541Z,59.53
2022-07-26T14:55:45.690Z,60.44
2022-07-26T14:58:48.125Z,60.11
2022-07-26T15:01:50.281Z,58.22
2022-07-26T15:04:52.722Z,58.98
2022-07-26T15:07:55.023Z,60.22
2022-07-26T15:10:57.529Z,60.96
2022-07-26T15:14:03.974Z,61.13
2022-07-26T15:17:09.187Z,59.70
2022-07-26T15:20:11.431Z,60.65
2022-07-26T15:23:14.999Z,61.05
2022-07-26T15:26:17.192Z,61.20
2022-07-26T15:29:19.813Z,61.20
2022-07-26T15:32:22.010Z,61.07
2022-07-26T15:35:24.554Z,61.36
2022-07-26T15:38:26.732Z,61.32
2022-07-26T15:41:29.125Z,61.37
2022-07-26T15:44:31.268Z,60.52
2022-07-26T15:50:55.788Z,60.35
2022-07-26T15:53:58.571Z,60.69
2022-07-26T15:57:00.747Z,60.75
2022-07-26T16:00:11.008Z,60.89
2022-07-26T16:03:14.714Z,60.82
2022-07-26T16:06:17.512Z,61.40
2022-07-26T16:09:20.228Z,61.58
2022-07-26T16:12:23.218Z,61.14
2022-07-26T16:15:25.767Z,61.07
2022-07-26T16:18:27.865Z,60.96
2022-07-26T16:21:30.252Z,60.93
2022-07-26T16:24:33.428Z,60.75
2022-07-26T16:27:35.881Z,60.12
2022-07-26T16:30:38.198Z,60.19
2022-07-26T16:33:46.375Z,59.52
2022-07-26T16:36:48.966Z,59.58
2022-07-26T16:39:51.446Z,59.25
2022-07-26T16:42:53.589Z,58.41
2022-07-26T16:45:55.971Z,59.48
2022-07-26T16:48:58.346Z,59.99
2022-07-26T16:52:00.797Z,60.47
2022-07-26T16:55:04.182Z,60.24
2022-07-26T16:58:06.606Z,59.66
2022-07-26T17:01:08.793Z,60.03
2022-07-26T17:04:11.274Z,60.20
2022-07-26T17:07:28.856Z,58.58
2022-07-26T17:10:31.398Z,57.48
2022-07-26T17:13:33.657Z,56.96
2022-07-26T17:16:36.405Z,55.32
2022-07-26T17:19:38.739Z,55.31
2022-07-26T17:22:41.149Z,55.87
2022-07-26T17:25:43.240Z,56.64
2022-07-26T17:28:46.503Z,57.33
2022-07-26T17:31:50.159Z,58.01
2022-07-26T17:34:52.622Z,58.16
2022-07-26T17:37:56.055Z,58.57
2022-07-26T17:40:58.878Z,58.90
2022-07-26T17:44:03.082Z,59.96
2022-07-26T17:47:06.014Z,60.29
2022-07-26T17:50:43.423Z,60.42
2022-07-26T17:53:51.033Z,60.43
2022-07-26T17:56:55.251Z,60.52
2022-07-26T17:59:58.575Z,60.69
2022-07-26T18:03:02.906Z,61.07
2022-07-26T18:06:06.511Z,61.06
2022-07-26T18:09:09.918Z,61.17
2022-07-26T18:12:12.536Z,61.80
2022-07-26T18:15:14.689Z,62.40
2022-07-26T18:18:18.471Z,62.93
2022-07-26T18:21:20.573Z,63.30
2022-07-26T18:24:22.960Z,63.97
2022-07-26T18:27:28.068Z,64.64
2022-07-26T18:30:32.053Z,65.62
2022-07-26T18:33:34.191Z,65.61
2022-07-26T18:36:36.642Z,66.14
2022-07-26T18:39:38.742Z,66.49
2022-07-26T18:42:41.207Z,67.30
2022-07-26T18:45:43.673Z,67.60
2022-07-26T18:48:46.176Z,68.37
2022-07-26T18:51:49.064Z,68.74
2022-07-26T18:54:53.233Z,69.14
2022-07-26T18:57:55.254Z,69.51
2022-07-26T19:00:57.619Z,69.97
2022-07-26T19:04:03.481Z,70.42
2022-07-26T19:07:09.115Z,70.78
2022-07-26T19:10:12.021Z,70.79
2022-07-26T19:13:14.434Z,71.11
2022-07-26T19:16:16.659Z,71.40
2022-07-26T19:19:19.120Z,71.33
2022-07-26T19:22:21.387Z,71.33
2022-07-26T19:25:23.771Z,71.59
2022-07-26T19:28:26.024Z,72.41
2022-07-26T19:31:28.449Z,71.85
2022-07-26T19:34:30.652Z,72.80
2022-07-26T19:37:33.318Z,73.33
2022-07-26T19:40:35.551Z,72.97
2022-07-26T19:43:37.934Z,72.92
2022-07-26T19:46:40.511Z,73.22
2022-07-26T19:49:43.101Z,73.57
2022-07-26T19:52:45.223Z,74.59
2022-07-26T19:55:47.714Z,73.97
2022-07-26T19:58:50.010Z,73.91
2022-07-26T20:01:55.138Z,74.52
2022-07-26T20:05:00.788Z,73.93
2022-07-26T20:08:02.969Z,74.43
2022-07-26T20:11:06.133Z,74.79
2022-07-26T20:14:08.522Z,74.88
2022-07-26T20:17:12.815Z,74.84
2022-07-26T20:20:17.708Z,75.12
2022-07-26T20:23:20.423Z,75.61
2022-07-26T20:26:22.969Z,74.42
2022-07-26T20:29:25.388Z,74.64
2022-07-26T20:32:27.535Z,74.99
2022-07-26T20:35:30.590Z,75.45
2022-07-26T20:38:32.742Z,75.16
2022-07-26T20:41:35.192Z,74.49
2022-07-26T20:44:37.938Z,73.73
2022-07-26T20:47:42.867Z,74.08
2022-07-26T20:50:45.100Z,74.61
2022-07-26T20:53:47.575Z,73.88
2022-07-26T20:56:49.869Z,74.51
2022-07-26T20:59:52.435Z,74.27
2022-07-26T21:02:54.807Z,74.09
2022-07-26T21:05:57.588Z,74.89
2022-07-26T21:08:59.954Z,74.06
2022-07-26T21:12:02.323Z,73.73
2022-07-26T21:15:05.123Z,73.81
2022-07-26T21:18:07.623Z,73.79
2022-07-26T21:21:09.822Z,74.31
2022-07-26T21:24:12.286Z,74.41
2022-07-26T21:27:14.414Z,74.41
2022-07-26T21:30:16.834Z,74.57
2022-07-26T21:33:18.990Z,73.32
2022-07-26T21:36:21.462Z,72.66
2022-07-26T21:39:23.624Z,72.03
2022-07-26T21:42:26.762Z,71.69
2022-07-26T21:45:29.207Z,71.58
2022-07-26T21:48:31.711Z,71.00
2022-07-26T21:51:33.910Z,71.15
2022-07-26T21:54:36.354Z,71.32
2022-07-26T21:57:44.249Z,70.51
2022-07-26T22:00:46.722Z,71.29
2022-07-26T22:03:49.188Z,71.37
2022-07-26T22:06:51.314Z,71.65
2022-07-26T22:09:53.735Z,70.70
2022-07-26T22:12:55.861Z,71.94
2022-07-26T22:15:58.477Z,71.67
2022-07-26T22:19:02.471Z,70.34
2022-07-26T22:22:05.684Z,70.17
2022-07-26T22:25:08.310Z,70.75
2022-07-26T22:28:11.977Z,70.46
2022-07-26T22:31:19.975Z,71.40
2022-07-26T22:34:22.450Z,70.17
2022-07-26T22:37:24.608Z,69.82
2022-07-26T22:40:27.024Z,68.95
2022-07-26T22:43:29.153Z,68.23
2022-07-26T22:46:31.672Z,68.34
2022-07-26T22:49:33.967Z,68.05
2022-07-26T22:52:37.269Z,68.27
2022-07-26T22:55:39.405Z,68.46
2022-07-26T22:58:41.792Z,68.73
2022-07-26T23:01:46.194Z,68.44
2022-07-26T23:04:48.702Z,67.42
2022-07-26T23:07:50.915Z,67.13
2022-07-26T23:10:53.502Z,66.66
2022-07-26T23:13:58.951Z,64.90
2022-07-26T23:17:01.817Z,64.53
2022-07-26T23:20:06.301Z,64.82
2022-07-26T23:23:09.491Z,63.94
2022-07-26T23:26:11.735Z,62.87
2022-07-26T23:29:14.616Z,62.31
2022-07-26T23:32:17.279Z,61.88
2022-07-26T23:35:21.207Z,61.55
2022-07-26T23:38:23.326Z,60.95
2022-07-26T23:41:28.561Z,60.03
2022-07-26T23:44:30.882Z,59.62
2022-07-26T23:47:33.290Z,58.78
2022-07-26T23:50:35.419Z,58.17
2022-07-26T23:53:37.887Z,57.15
2022-07-26T23:56:40.263Z,56.49
2022-07-26T23:59:42.732Z,55.66
